sensor_id;sensor_type;location;lat;lon;timestamp;P1;durP1;ratioP1;P2;durP2;ratioP2
28130;SDS011;15418;42.634;23.374;2022-11-03T00:11:59;15.00;;;6.20;;
28130;SDS011;15418;42.634;23.374;2022-11-03T02:42:05;23.38;;;8.13;;
28130;SDS011;15418;42.634;23.374;2022-11-03T02:44:33;20.58;;;8.90;;
28130;SDS011;15418;42.634;23.374;2022-11-03T02:47:02;19.45;;;8.82;;
28130;SDS011;15418;42.634;23.374;2022-11-03T02:49:37;16.10;;;8.52;;
28130;SDS011;15418;42.634;23.374;2022-11-03T03:03:56;21.15;;;8.15;;
28130;SDS011;15418;42.634;23.374;2022-11-03T03:12:23;15.73;;;7.45;;
28130;SDS011;15418;42.634;23.374;2022-11-03T03:25:37;23.58;;;9.02;;
28130;SDS011;15418;42.634;23.374;2022-11-03T03:28:15;23.85;;;8.10;;
28130;SDS011;15418;42.634;23.374;2022-11-03T03:30:52;23.17;;;8.52;;
28130;SDS011;15418;42.634;23.374;2022-11-03T03:33:22;22.63;;;8.77;;
28130;SDS011;15418;42.634;23.374;2022-11-03T03:36:02;19.77;;;8.33;;
28130;SDS011;15418;42.634;23.374;2022-11-03T03:38:43;29.05;;;8.15;;
28130;SDS011;15418;42.634;23.374;2022-11-03T03:41:16;24.50;;;9.30;;
28130;SDS011;15418;42.634;23.374;2022-11-03T03:51:53;23.30;;;9.60;;
28130;SDS011;15418;42.634;23.374;2022-11-03T03:54:29;20.95;;;9.38;;
28130;SDS011;15418;42.634;23.374;2022-11-03T03:57:02;19.60;;;8.60;;
28130;SDS011;15418;42.634;23.374;2022-11-03T03:59:33;25.13;;;8.88;;
28130;SDS011;15418;42.634;23.374;2022-11-03T04:48:26;29.77;;;11.48;;
28130;SDS011;15418;42.634;23.374;2022-11-03T05:23:08;28.40;;;11.10;;
28130;SDS011;15418;42.634;23.374;2022-11-03T05:25:43;29.40;;;10.60;;
28130;SDS011;15418;42.634;23.374;2022-11-03T05:28:49;24.20;;;10.85;;
28130;SDS011;15418;42.634;23.374;2022-11-03T05:31:41;31.77;;;11.23;;
28130;SDS011;15418;42.634;23.374;2022-11-03T05:37:31;34.25;;;11.98;;
28130;SDS011;15418;42.634;23.374;2022-11-03T05:40:15;36.65;;;12.07;;
28130;SDS011;15418;42.634;23.374;2022-11-03T06:07:35;34.85;;;13.35;;
28130;SDS011;15418;42.634;23.374;2022-11-03T06:56:38;43.72;;;18.15;;
28130;SDS011;15418;42.634;23.374;2022-11-03T07:01:39;51.10;;;18.38;;
28130;SDS011;15418;42.634;23.374;2022-11-03T07:04:18;42.28;;;18.38;;
28130;SDS011;15418;42.634;23.374;2022-11-03T07:07:31;53.47;;;18.00;;
28130;SDS011;15418;42.634;23.374;2022-11-03T07:10:08;40.35;;;19.70;;
28130;SDS011;15418;42.634;23.374;2022-11-03T07:12:35;43.28;;;18.27;;
28130;SDS011;15418;42.634;23.374;2022-11-03T07:15:04;40.47;;;18.02;;
28130;SDS011;15418;42.634;23.374;2022-11-03T07:17:52;40.70;;;18.02;;
28130;SDS011;15418;42.634;23.374;2022-11-03T07:44:17;40.55;;;16.20;;
28130;SDS011;15418;42.634;23.374;2022-11-03T07:49:38;41.60;;;17.35;;
28130;SDS011;15418;42.634;23.374;2022-11-03T07:52:13;28.45;;;15.98;;
28130;SDS011;15418;42.634;23.374;2022-11-03T07:54:42;38.15;;;17.25;;
28130;SDS011;15418;42.634;23.374;2022-11-03T07:57:14;38.03;;;16.85;;
28130;SDS011;15418;42.634;23.374;2022-11-03T08:00:09;41.75;;;16.17;;
28130;SDS011;15418;42.634;23.374;2022-11-03T08:02:51;36.17;;;17.40;;
28130;SDS011;15418;42.634;23.374;2022-11-03T08:10:44;46.67;;;20.55;;
28130;SDS011;15418;42.634;23.374;2022-11-03T08:13:16;38.80;;;18.75;;
28130;SDS011;15418;42.634;23.374;2022-11-03T08:15:49;38.47;;;19.52;;
28130;SDS011;15418;42.634;23.374;2022-11-03T08:18:15;47.38;;;20.48;;
28130;SDS011;15418;42.634;23.374;2022-11-03T08:20:40;45.22;;;19.38;;
28130;SDS011;15418;42.634;23.374;2022-11-03T08:23:08;42.95;;;22.83;;
28130;SDS011;15418;42.634;23.374;2022-11-03T08:25:36;40.92;;;20.35;;
28130;SDS011;15418;42.634;23.374;2022-11-03T08:28:06;40.85;;;19.98;;
28130;SDS011;15418;42.634;23.374;2022-11-03T08:30:39;45.00;;;20.40;;
28130;SDS011;15418;42.634;23.374;2022-11-03T08:33:05;38.80;;;21.00;;
28130;SDS011;15418;42.634;23.374;2022-11-03T08:35:30;42.55;;;18.73;;
28130;SDS011;15418;42.634;23.374;2022-11-03T08:37:56;35.90;;;19.45;;
28130;SDS011;15418;42.634;23.374;2022-11-03T08:40:22;41.05;;;19.05;;
28130;SDS011;15418;42.634;23.374;2022-11-03T08:42:47;45.47;;;20.92;;
28130;SDS011;15418;42.634;23.374;2022-11-03T08:45:14;39.25;;;20.63;;
28130;SDS011;15418;42.634;23.374;2022-11-03T08:47:40;34.53;;;19.85;;
28130;SDS011;15418;42.634;23.374;2022-11-03T08:50:05;43.92;;;20.67;;
28130;SDS011;15418;42.634;23.374;2022-11-03T08:52:31;42.70;;;19.98;;
28130;SDS011;15418;42.634;23.374;2022-11-03T08:54:57;38.95;;;20.05;;
28130;SDS011;15418;42.634;23.374;2022-11-03T08:57:22;47.45;;;19.75;;
28130;SDS011;15418;42.634;23.374;2022-11-03T08:59:48;45.42;;;20.88;;
28130;SDS011;15418;42.634;23.374;2022-11-03T09:02:13;50.92;;;20.75;;
28130;SDS011;15418;42.634;23.374;2022-11-03T09:04:39;44.38;;;18.05;;
28130;SDS011;15418;42.634;23.374;2022-11-03T09:07:04;33.85;;;17.33;;
28130;SDS011;15418;42.634;23.374;2022-11-03T09:09:30;38.92;;;17.50;;
28130;SDS011;15418;42.634;23.374;2022-11-03T09:11:57;38.90;;;19.80;;
28130;SDS011;15418;42.634;23.374;2022-11-03T09:14:23;47.83;;;19.60;;
28130;SDS011;15418;42.634;23.374;2022-11-03T09:16:49;42.85;;;19.08;;
28130;SDS011;15418;42.634;23.374;2022-11-03T09:19:14;40.10;;;19.05;;
28130;SDS011;15418;42.634;23.374;2022-11-03T09:21:40;40.55;;;19.27;;
28130;SDS011;15418;42.634;23.374;2022-11-03T09:24:06;41.33;;;18.00;;
28130;SDS011;15418;42.634;23.374;2022-11-03T09:26:31;42.15;;;19.23;;
28130;SDS011;15418;42.634;23.374;2022-11-03T09:28:57;42.08;;;18.77;;
28130;SDS011;15418;42.634;23.374;2022-11-03T09:31:24;49.60;;;19.00;;
28130;SDS011;15418;42.634;23.374;2022-11-03T09:33:54;42.42;;;18.67;;
28130;SDS011;15418;42.634;23.374;2022-11-03T09:36:20;38.53;;;19.55;;
28130;SDS011;15418;42.634;23.374;2022-11-03T09:38:45;44.42;;;19.70;;
28130;SDS011;15418;42.634;23.374;2022-11-03T09:41:11;50.00;;;18.08;;
28130;SDS011;15418;42.634;23.374;2022-11-03T09:43:42;49.63;;;18.90;;
28130;SDS011;15418;42.634;23.374;2022-11-03T09:46:09;39.38;;;18.58;;
28130;SDS011;15418;42.634;23.374;2022-11-03T09:48:35;45.67;;;19.38;;
28130;SDS011;15418;42.634;23.374;2022-11-03T09:51:00;43.85;;;19.85;;
28130;SDS011;15418;42.634;23.374;2022-11-03T09:53:26;43.90;;;18.48;;
28130;SDS011;15418;42.634;23.374;2022-11-03T09:55:53;57.15;;;28.77;;
28130;SDS011;15418;42.634;23.374;2022-11-03T09:58:19;46.85;;;18.52;;
28130;SDS011;15418;42.634;23.374;2022-11-03T10:00:44;34.47;;;16.17;;
28130;SDS011;15418;42.634;23.374;2022-11-03T10:03:11;37.28;;;15.55;;
28130;SDS011;15418;42.634;23.374;2022-11-03T10:05:45;42.40;;;16.75;;
28130;SDS011;15418;42.634;23.374;2022-11-03T10:08:22;36.65;;;16.38;;
28130;SDS011;15418;42.634;23.374;2022-11-03T10:10:53;33.63;;;16.65;;
28130;SDS011;15418;42.634;23.374;2022-11-03T10:16:00;33.67;;;14.82;;
28130;SDS011;15418;42.634;23.374;2022-11-03T10:18:30;29.20;;;14.15;;
28130;SDS011;15418;42.634;23.374;2022-11-03T10:21:02;34.90;;;14.32;;
28130;SDS011;15418;42.634;23.374;2022-11-03T10:23:31;32.55;;;14.63;;
28130;SDS011;15418;42.634;23.374;2022-11-03T10:31:36;41.78;;;14.38;;
28130;SDS011;15418;42.634;23.374;2022-11-03T10:34:04;32.25;;;12.20;;
28130;SDS011;15418;42.634;23.374;2022-11-03T10:36:31;30.45;;;14.25;;
28130;SDS011;15418;42.634;23.374;2022-11-03T10:39:21;30.65;;;13.38;;
28130;SDS011;15418;42.634;23.374;2022-11-03T10:41:56;33.75;;;13.07;;
28130;SDS011;15418;42.634;23.374;2022-11-03T10:44:22;29.60;;;13.43;;
28130;SDS011;15418;42.634;23.374;2022-11-03T10:47:03;35.08;;;12.10;;
28130;SDS011;15418;42.634;23.374;2022-11-03T10:53:12;27.10;;;8.38;;
28130;SDS011;15418;42.634;23.374;2022-11-03T10:55:43;24.40;;;6.95;;
28130;SDS011;15418;42.634;23.374;2022-11-03T10:58:09;20.92;;;6.75;;
28130;SDS011;15418;42.634;23.374;2022-11-03T11:00:34;21.40;;;7.63;;
28130;SDS011;15418;42.634;23.374;2022-11-03T11:03:00;18.10;;;5.90;;
28130;SDS011;15418;42.634;23.374;2022-11-03T11:05:26;19.10;;;7.35;;
28130;SDS011;15418;42.634;23.374;2022-11-03T11:07:52;24.63;;;8.10;;
28130;SDS011;15418;42.634;23.374;2022-11-03T11:10:20;24.98;;;8.18;;
28130;SDS011;15418;42.634;23.374;2022-11-03T11:18:06;18.90;;;7.32;;
28130;SDS011;15418;42.634;23.374;2022-11-03T11:29:32;19.73;;;6.20;;
28130;SDS011;15418;42.634;23.374;2022-11-03T11:31:41;23.35;;;6.53;;
28130;SDS011;15418;42.634;23.374;2022-11-03T11:47:18;21.73;;;7.72;;
28130;SDS011;15418;42.634;23.374;2022-11-03T11:52:43;23.38;;;7.80;;
28130;SDS011;15418;42.634;23.374;2022-11-03T11:55:41;22.00;;;8.65;;
28130;SDS011;15418;42.634;23.374;2022-11-03T11:58:25;27.85;;;8.45;;
28130;SDS011;15418;42.634;23.374;2022-11-03T12:01:00;29.45;;;10.55;;
28130;SDS011;15418;42.634;23.374;2022-11-03T12:03:31;27.00;;;10.15;;
28130;SDS011;15418;42.634;23.374;2022-11-03T12:06:00;25.77;;;9.10;;
28130;SDS011;15418;42.634;23.374;2022-11-03T12:08:27;33.30;;;8.77;;
28130;SDS011;15418;42.634;23.374;2022-11-03T12:10:56;24.23;;;7.13;;
28130;SDS011;15418;42.634;23.374;2022-11-03T12:13:33;23.40;;;7.70;;
28130;SDS011;15418;42.634;23.374;2022-11-03T12:16:35;25.63;;;8.93;;
28130;SDS011;15418;42.634;23.374;2022-11-03T12:22:08;20.00;;;7.30;;
28130;SDS011;15418;42.634;23.374;2022-11-03T12:28:06;24.88;;;8.25;;
28130;SDS011;15418;42.634;23.374;2022-11-03T12:30:31;24.05;;;8.63;;
28130;SDS011;15418;42.634;23.374;2022-11-03T12:32:57;22.80;;;6.80;;
28130;SDS011;15418;42.634;23.374;2022-11-03T12:35:23;19.33;;;6.65;;
28130;SDS011;15418;42.634;23.374;2022-11-03T12:37:55;26.30;;;6.85;;
28130;SDS011;15418;42.634;23.374;2022-11-03T12:40:23;23.25;;;7.35;;
28130;SDS011;15418;42.634;23.374;2022-11-03T12:42:51;25.00;;;6.68;;
28130;SDS011;15418;42.634;23.374;2022-11-03T12:45:16;21.75;;;6.53;;
28130;SDS011;15418;42.634;23.374;2022-11-03T12:47:43;19.83;;;6.22;;
28130;SDS011;15418;42.634;23.374;2022-11-03T12:50:09;23.80;;;6.20;;
28130;SDS011;15418;42.634;23.374;2022-11-03T12:52:35;28.88;;;6.50;;
28130;SDS011;15418;42.634;23.374;2022-11-03T12:55:00;25.10;;;5.63;;
28130;SDS011;15418;42.634;23.374;2022-11-03T12:57:26;23.10;;;5.93;;
28130;SDS011;15418;42.634;23.374;2022-11-03T12:59:51;21.50;;;6.03;;
28130;SDS011;15418;42.634;23.374;2022-11-03T13:02:17;28.73;;;6.95;;
28130;SDS011;15418;42.634;23.374;2022-11-03T13:04:42;21.88;;;5.90;;
28130;SDS011;15418;42.634;23.374;2022-11-03T13:07:08;34.78;;;7.68;;
28130;SDS011;15418;42.634;23.374;2022-11-03T13:09:33;22.65;;;5.85;;
28130;SDS011;15418;42.634;23.374;2022-11-03T13:11:59;21.58;;;6.07;;
28130;SDS011;15418;42.634;23.374;2022-11-03T13:14:43;22.30;;;6.53;;
28130;SDS011;15418;42.634;23.374;2022-11-03T13:17:09;25.05;;;6.40;;
28130;SDS011;15418;42.634;23.374;2022-11-03T13:19:37;22.08;;;7.28;;
28130;SDS011;15418;42.634;23.374;2022-11-03T13:22:03;28.67;;;6.60;;
28130;SDS011;15418;42.634;23.374;2022-11-03T13:24:29;23.10;;;7.05;;
28130;SDS011;15418;42.634;23.374;2022-11-03T13:26:54;20.05;;;5.75;;
28130;SDS011;15418;42.634;23.374;2022-11-03T13:29:20;27.75;;;6.85;;
28130;SDS011;15418;42.634;23.374;2022-11-03T13:31:45;28.27;;;6.93;;
28130;SDS011;15418;42.634;23.374;2022-11-03T13:34:11;28.15;;;8.13;;
28130;SDS011;15418;42.634;23.374;2022-11-03T13:36:36;24.33;;;7.13;;
28130;SDS011;15418;42.634;23.374;2022-11-03T13:39:02;17.00;;;6.35;;
28130;SDS011;15418;42.634;23.374;2022-11-03T13:41:28;17.92;;;6.65;;
28130;SDS011;15418;42.634;23.374;2022-11-03T13:43:53;18.92;;;6.22;;
28130;SDS011;15418;42.634;23.374;2022-11-03T13:46:19;24.58;;;6.72;;
28130;SDS011;15418;42.634;23.374;2022-11-03T13:48:44;27.13;;;6.72;;
28130;SDS011;15418;42.634;23.374;2022-11-03T13:51:10;25.92;;;5.85;;
28130;SDS011;15418;42.634;23.374;2022-11-03T13:53:36;20.73;;;5.93;;
28130;SDS011;15418;42.634;23.374;2022-11-03T13:56:02;25.48;;;6.30;;
28130;SDS011;15418;42.634;23.374;2022-11-03T13:58:28;20.95;;;6.38;;
28130;SDS011;15418;42.634;23.374;2022-11-03T14:03:37;23.20;;;6.25;;
28130;SDS011;15418;42.634;23.374;2022-11-03T14:06:03;23.10;;;7.18;;
28130;SDS011;15418;42.634;23.374;2022-11-03T14:08:28;19.95;;;5.80;;
28130;SDS011;15418;42.634;23.374;2022-11-03T14:10:54;31.27;;;7.10;;
28130;SDS011;15418;42.634;23.374;2022-11-03T14:13:19;25.90;;;6.50;;
28130;SDS011;15418;42.634;23.374;2022-11-03T14:15:45;32.28;;;6.82;;
28130;SDS011;15418;42.634;23.374;2022-11-03T14:20:53;29.40;;;7.82;;
28130;SDS011;15418;42.634;23.374;2022-11-03T14:23:23;22.92;;;7.35;;
28130;SDS011;15418;42.634;23.374;2022-11-03T14:25:50;26.05;;;7.13;;
28130;SDS011;15418;42.634;23.374;2022-11-03T14:28:19;22.85;;;6.32;;
28130;SDS011;15418;42.634;23.374;2022-11-03T14:30:48;17.63;;;6.10;;
28130;SDS011;15418;42.634;23.374;2022-11-03T14:33:13;34.53;;;7.68;;
28130;SDS011;15418;42.634;23.374;2022-11-03T14:35:42;30.65;;;7.63;;
28130;SDS011;15418;42.634;23.374;2022-11-03T14:38:07;34.05;;;6.97;;
28130;SDS011;15418;42.634;23.374;2022-11-03T14:40:33;86.85;;;23.83;;
28130;SDS011;15418;42.634;23.374;2022-11-03T14:43:17;33.05;;;8.02;;
28130;SDS011;15418;42.634;23.374;2022-11-03T14:45:42;49.47;;;11.85;;
28130;SDS011;15418;42.634;23.374;2022-11-03T14:48:08;31.20;;;8.77;;
28130;SDS011;15418;42.634;23.374;2022-11-03T14:50:33;29.95;;;7.80;;
28130;SDS011;15418;42.634;23.374;2022-11-03T14:52:59;46.15;;;14.63;;
28130;SDS011;15418;42.634;23.374;2022-11-03T14:55:24;47.88;;;9.00;;
28130;SDS011;15418;42.634;23.374;2022-11-03T14:57:50;43.22;;;9.30;;
28130;SDS011;15418;42.634;23.374;2022-11-03T15:00:15;50.17;;;9.32;;
28130;SDS011;15418;42.634;23.374;2022-11-03T15:02:42;51.67;;;10.20;;
28130;SDS011;15418;42.634;23.374;2022-11-03T15:05:09;53.55;;;11.20;;
28130;SDS011;15418;42.634;23.374;2022-11-03T15:07:54;38.58;;;9.32;;
28130;SDS011;15418;42.634;23.374;2022-11-03T15:10:21;53.80;;;9.65;;
28130;SDS011;15418;42.634;23.374;2022-11-03T15:12:46;47.63;;;9.10;;
28130;SDS011;15418;42.634;23.374;2022-11-03T15:15:12;82.53;;;12.15;;
28130;SDS011;15418;42.634;23.374;2022-11-03T15:17:38;35.45;;;10.30;;
28130;SDS011;15418;42.634;23.374;2022-11-03T15:20:03;45.95;;;10.20;;
28130;SDS011;15418;42.634;23.374;2022-11-03T15:22:29;45.08;;;10.55;;
28130;SDS011;15418;42.634;23.374;2022-11-03T15:24:58;47.13;;;9.32;;
28130;SDS011;15418;42.634;23.374;2022-11-03T15:27:23;62.15;;;10.95;;
28130;SDS011;15418;42.634;23.374;2022-11-03T15:29:50;53.33;;;10.98;;
28130;SDS011;15418;42.634;23.374;2022-11-03T15:33:03;46.50;;;9.15;;
28130;SDS011;15418;42.634;23.374;2022-11-03T15:40:52;46.72;;;10.80;;
28130;SDS011;15418;42.634;23.374;2022-11-03T16:11:51;35.65;;;8.63;;
28130;SDS011;15418;42.634;23.374;2022-11-03T16:14:17;50.25;;;11.57;;
28130;SDS011;15418;42.634;23.374;2022-11-03T16:59:44;33.88;;;10.02;;
28130;SDS011;15418;42.634;23.374;2022-11-03T17:02:11;32.53;;;10.00;;
28130;SDS011;15418;42.634;23.374;2022-11-03T17:07:43;48.05;;;16.90;;
28130;SDS011;15418;42.634;23.374;2022-11-03T17:28:24;25.77;;;7.82;;
28130;SDS011;15418;42.634;23.374;2022-11-03T17:30:55;27.55;;;8.05;;
28130;SDS011;15418;42.634;23.374;2022-11-03T17:38:31;22.77;;;8.02;;
28130;SDS011;15418;42.634;23.374;2022-11-03T17:40:57;23.38;;;9.40;;
28130;SDS011;15418;42.634;23.374;2022-11-03T17:43:52;21.55;;;8.35;;
28130;SDS011;15418;42.634;23.374;2022-11-03T17:51:41;29.90;;;7.80;;
28130;SDS011;15418;42.634;23.374;2022-11-03T17:54:09;24.92;;;7.07;;
28130;SDS011;15418;42.634;23.374;2022-11-03T17:56:40;23.40;;;7.20;;
28130;SDS011;15418;42.634;23.374;2022-11-03T17:59:06;20.35;;;6.70;;
28130;SDS011;15418;42.634;23.374;2022-11-03T18:01:33;34.03;;;8.43;;
28130;SDS011;15418;42.634;23.374;2022-11-03T18:03:59;18.38;;;6.90;;
28130;SDS011;15418;42.634;23.374;2022-11-03T18:06:26;19.13;;;6.60;;
28130;SDS011;15418;42.634;23.374;2022-11-03T18:11:28;21.83;;;7.82;;
28130;SDS011;15418;42.634;23.374;2022-11-03T18:14:16;18.60;;;6.50;;
28130;SDS011;15418;42.634;23.374;2022-11-03T18:16:47;26.05;;;8.48;;
28130;SDS011;15418;42.634;23.374;2022-11-03T18:19:34;29.98;;;8.68;;
28130;SDS011;15418;42.634;23.374;2022-11-03T18:24:41;18.38;;;8.00;;
28130;SDS011;15418;42.634;23.374;2022-11-03T18:27:14;26.65;;;9.40;;
28130;SDS011;15418;42.634;23.374;2022-11-03T18:29:47;21.38;;;7.88;;
28130;SDS011;15418;42.634;23.374;2022-11-03T18:32:28;20.95;;;8.77;;
28130;SDS011;15418;42.634;23.374;2022-11-03T18:35:25;23.73;;;8.90;;
28130;SDS011;15418;42.634;23.374;2022-11-03T18:37:58;31.25;;;10.45;;
28130;SDS011;15418;42.634;23.374;2022-11-03T18:40:33;25.65;;;8.60;;
28130;SDS011;15418;42.634;23.374;2022-11-03T18:43:13;27.20;;;9.32;;
28130;SDS011;15418;42.634;23.374;2022-11-03T18:45:46;30.60;;;9.73;;
28130;SDS011;15418;42.634;23.374;2022-11-03T18:48:26;26.20;;;8.90;;
28130;SDS011;15418;42.634;23.374;2022-11-03T18:50:54;26.70;;;9.82;;
28130;SDS011;15418;42.634;23.374;2022-11-03T18:53:22;28.40;;;9.23;;
28130;SDS011;15418;42.634;23.374;2022-11-03T18:55:53;25.67;;;9.65;;
28130;SDS011;15418;42.634;23.374;2022-11-03T18:58:26;26.00;;;9.43;;
28130;SDS011;15418;42.634;23.374;2022-11-03T19:00:53;32.50;;;10.00;;
28130;SDS011;15418;42.634;23.374;2022-11-03T19:03:28;26.45;;;10.02;;
28130;SDS011;15418;42.634;23.374;2022-11-03T19:29:52;33.17;;;9.45;;
28130;SDS011;15418;42.634;23.374;2022-11-03T19:32:27;27.75;;;9.00;;
28130;SDS011;15418;42.634;23.374;2022-11-03T19:37:31;19.60;;;9.15;;
28130;SDS011;15418;42.634;23.374;2022-11-03T19:39:58;24.80;;;8.45;;
28130;SDS011;15418;42.634;23.374;2022-11-03T19:42:24;24.00;;;8.50;;
28130;SDS011;15418;42.634;23.374;2022-11-03T19:45:02;23.70;;;10.05;;
28130;SDS011;15418;42.634;23.374;2022-11-03T19:47:31;27.02;;;10.93;;
28130;SDS011;15418;42.634;23.374;2022-11-03T19:50:03;29.73;;;10.63;;
28130;SDS011;15418;42.634;23.374;2022-11-03T19:52:32;23.90;;;10.10;;
28130;SDS011;15418;42.634;23.374;2022-11-03T19:55:00;35.17;;;9.70;;
28130;SDS011;15418;42.634;23.374;2022-11-03T19:57:30;38.70;;;10.63;;
28130;SDS011;15418;42.634;23.374;2022-11-03T19:59:57;27.27;;;10.15;;
28130;SDS011;15418;42.634;23.374;2022-11-03T20:02:25;24.60;;;8.70;;
28130;SDS011;15418;42.634;23.374;2022-11-03T20:10:44;21.88;;;8.93;;
28130;SDS011;15418;42.634;23.374;2022-11-03T20:18:40;20.30;;;8.85;;
28130;SDS011;15418;42.634;23.374;2022-11-03T20:21:16;20.75;;;8.50;;
28130;SDS011;15418;42.634;23.374;2022-11-03T20:23:44;23.27;;;9.55;;
28130;SDS011;15418;42.634;23.374;2022-11-03T20:26:19;23.75;;;9.60;;
28130;SDS011;15418;42.634;23.374;2022-11-03T20:28:46;21.15;;;10.27;;
28130;SDS011;15418;42.634;23.374;2022-11-03T20:31:15;23.55;;;8.98;;
28130;SDS011;15418;42.634;23.374;2022-11-03T20:33:43;26.67;;;9.98;;
28130;SDS011;15418;42.634;23.374;2022-11-03T20:36:17;24.95;;;9.48;;
28130;SDS011;15418;42.634;23.374;2022-11-03T20:38:50;23.95;;;8.15;;
28130;SDS011;15418;42.634;23.374;2022-11-03T20:44:04;32.75;;;9.95;;
28130;SDS011;15418;42.634;23.374;2022-11-03T20:49:07;32.50;;;10.85;;
28130;SDS011;15418;42.634;23.374;2022-11-03T20:51:43;24.95;;;9.95;;
28130;SDS011;15418;42.634;23.374;2022-11-03T20:54:12;37.45;;;11.32;;
28130;SDS011;15418;42.634;23.374;2022-11-03T20:57:14;30.13;;;10.77;;
28130;SDS011;15418;42.634;23.374;2022-11-03T20:59:46;27.67;;;10.75;;
28130;SDS011;15418;42.634;23.374;2022-11-03T21:02:15;26.67;;;10.88;;
28130;SDS011;15418;42.634;23.374;2022-11-03T21:04:47;28.13;;;10.60;;
28130;SDS011;15418;42.634;23.374;2022-11-03T21:09:48;35.78;;;9.57;;
28130;SDS011;15418;42.634;23.374;2022-11-03T21:18:13;33.88;;;9.55;;
28130;SDS011;15418;42.634;23.374;2022-11-03T21:21:04;33.80;;;11.15;;
28130;SDS011;15418;42.634;23.374;2022-11-03T21:23:32;22.73;;;8.93;;
28130;SDS011;15418;42.634;23.374;2022-11-03T21:25:58;20.50;;;9.07;;
28130;SDS011;15418;42.634;23.374;2022-11-03T21:28:24;24.55;;;10.63;;
28130;SDS011;15418;42.634;23.374;2022-11-03T21:30:54;21.70;;;9.73;;
28130;SDS011;15418;42.634;23.374;2022-11-03T21:33:20;31.27;;;10.88;;
28130;SDS011;15418;42.634;23.374;2022-11-03T21:38:22;31.83;;;10.57;;
28130;SDS011;15418;42.634;23.374;2022-11-03T21:40:48;36.90;;;14.02;;
28130;SDS011;15418;42.634;23.374;2022-11-03T21:43:16;23.63;;;10.20;;
28130;SDS011;15418;42.634;23.374;2022-11-03T21:51:24;26.33;;;11.30;;
28130;SDS011;15418;42.634;23.374;2022-11-03T21:54:01;27.38;;;10.50;;
28130;SDS011;15418;42.634;23.374;2022-11-03T21:56:32;25.92;;;10.90;;
28130;SDS011;15418;42.634;23.374;2022-11-03T21:59:03;29.05;;;10.90;;
28130;SDS011;15418;42.634;23.374;2022-11-03T22:05:09;23.42;;;10.18;;
28130;SDS011;15418;42.634;23.374;2022-11-03T22:34:08;20.70;;;9.57;;
28130;SDS011;15418;42.634;23.374;2022-11-03T22:45:20;26.45;;;10.38;;
28130;SDS011;15418;42.634;23.374;2022-11-03T22:48:05;18.88;;;9.93;;
28130;SDS011;15418;42.634;23.374;2022-11-03T22:50:47;25.25;;;10.20;;
28130;SDS011;15418;42.634;23.374;2022-11-03T22:53:22;21.20;;;9.27;;
28130;SDS011;15418;42.634;23.374;2022-11-03T22:58:40;27.55;;;9.75;;
28130;SDS011;15418;42.634;23.374;2022-11-03T23:01:08;23.55;;;12.00;;
28130;SDS011;15418;42.634;23.374;2022-11-03T23:03:36;22.60;;;11.38;;
28130;SDS011;15418;42.634;23.374;2022-11-03T23:09:02;30.10;;;11.50;;
28130;SDS011;15418;42.634;23.374;2022-11-03T23:14:20;24.17;;;10.20;;
28130;SDS011;15418;42.634;23.374;2022-11-03T23:19:23;27.10;;;10.60;;
28130;SDS011;15418;42.634;23.374;2022-11-03T23:30:39;30.58;;;11.93;;
28130;SDS011;15418;42.634;23.374;2022-11-03T23:56:40;24.60;;;11.73;;
28130;SDS011;15418;42.634;23.374;2022-11-03T23:59:19;26.55;;;12.45;;
